Time;durP1;ratioP1;P1;durP2;ratioP2;P2;SDS_P1;SDS_P2;PMS_P1;PMS_P2;Temp;Humidity;BMP_temperature;BMP_pressure;BME280_temperature;BME280_humidity;BME280_pressure;Samples;Min_cycle;Max_cycle;Signal;HPM_P1;HPM_P2
2021/01/31 00:02:02;;;;;;;10.23;9.33;;;2.60;99.90;;;3.03;95.93;96141.16;5258584;28;20206;-76
2021/01/31 00:04:35;;;;;;;10.67;9.77;;;2.50;99.90;;;2.99;96.01;96146.84;5254985;28;20652;-76
2021/01/31 00:07:07;;;;;;;10.57;9.67;;;2.50;99.90;;;3.06;95.96;96148.94;5247358;28;20199;-76
2021/01/31 00:09:39;;;;;;;10.60;9.60;;;2.60;99.90;;;3.14;97.23;96149.34;5248394;28;20577;-76
2021/01/31 00:12:11;;;;;;;11.47;10.47;;;2.60;99.90;;;3.14;96.42;96157.78;5265493;28;20582;-76
2021/01/31 00:14:44;;;;;;;11.70;10.70;;;2.60;99.90;;;3.25;97.34;96155.03;5247649;28;20595;-76
2021/01/31 00:17:16;;;;;;;11.17;10.17;;;2.70;99.90;;;3.20;96.39;96158.94;5247568;28;20256;-76
2021/01/31 00:19:49;;;;;;;10.10;9.20;;;2.60;99.90;;;3.35;95.03;96154.78;5266923;28;20222;-75
2021/01/31 00:22:21;;;;;;;10.30;9.47;;;2.80;99.90;;;3.20;94.49;96159.81;5248440;28;20208;-76
2021/01/31 00:24:54;;;;;;;11.90;10.80;;;2.70;99.90;;;3.22;95.20;96157.38;5247968;28;20679;-75
2021/01/31 00:27:26;;;;;;;11.93;10.93;;;2.60;99.90;;;3.13;95.71;96161.13;5248995;28;20587;-76
2021/01/31 00:29:59;;;;;;;11.07;10.17;;;2.60;99.90;;;2.97;95.28;96157.63;5247622;28;20200;-76
2021/01/31 00:32:31;;;;;;;10.87;9.97;;;2.50;99.90;;;3.07;95.57;96158.25;5260987;28;20226;-76
2021/01/31 00:35:05;;;;;;;11.57;10.57;;;2.50;99.90;;;2.97;93.87;96161.00;5268527;28;20290;-75
2021/01/31 00:37:37;;;;;;;12.77;11.53;;;2.40;99.90;;;3.09;95.65;96165.88;5261532;28;20207;-76
2021/01/31 00:40:10;;;;;;;12.40;11.33;;;2.50;99.90;;;3.09;95.47;96166.78;5247192;28;20211;-76
2021/01/31 00:42:42;;;;;;;12.13;11.13;;;2.50;99.90;;;3.02;94.33;96159.63;5267019;28;20586;-74
2021/01/31 00:45:19;;;;;;;11.73;10.83;;;2.50;99.90;;;3.00;94.12;96165.38;5265419;28;20274;-74
2021/01/31 00:47:52;;;;;;;11.50;10.60;;;2.40;99.90;;;3.01;95.04;96162.94;5265479;28;20588;-76
2021/01/31 00:50:28;;;;;;;11.10;10.20;;;2.40;99.90;;;3.06;94.17;96169.13;5267097;28;20200;-73
2021/01/31 00:53:00;;;;;;;10.93;10.03;;;2.40;99.90;;;2.98;93.88;96175.38;5268374;28;20318;-73
2021/01/31 00:55:32;;;;;;;12.87;11.77;;;2.50;99.90;;;2.95;94.75;96172.69;5248764;28;20205;-73
2021/01/31 00:58:05;;;;;;;11.33;10.27;;;2.40;99.90;;;2.90;95.10;96174.94;5248257;28;20200;-75
2021/01/31 01:00:39;;;;;;;12.23;11.20;;;2.40;99.90;;;3.09;94.80;96178.50;5265894;28;20314;-74
2021/01/31 01:03:12;;;;;;;12.90;11.70;;;2.40;99.90;;;3.03;94.71;96176.50;5266399;28;20676;-75
2021/01/31 01:05:44;;;;;;;13.17;12.07;;;2.50;99.90;;;2.91;94.46;96168.22;5267837;28;20307;-76
2021/01/31 01:08:16;;;;;;;12.77;11.67;;;2.40;99.90;;;3.00;95.75;96177.97;5267054;28;20200;-76
2021/01/31 01:10:48;;;;;;;12.00;10.97;;;2.40;99.90;;;3.03;95.03;96179.03;5265104;28;20295;-75
2021/01/31 01:13:20;;;;;;;12.37;11.20;;;2.40;99.90;;;3.05;94.92;96185.03;5244896;28;20689;-75
2021/01/31 01:15:54;;;;;;;11.67;10.57;;;2.40;99.90;;;3.12;95.18;96182.09;5245607;28;20694;-76
2021/01/31 01:18:26;;;;;;;12.23;11.20;;;2.40;99.90;;;2.96;94.71;96184.50;5246483;28;20710;-75
2021/01/31 01:20:58;;;;;;;12.03;10.93;;;2.30;99.90;;;2.97;94.99;96182.84;5246391;28;20212;-74
2021/01/31 01:23:30;;;;;;;11.87;10.77;;;2.30;99.90;;;2.86;93.80;96182.22;5253495;28;20771;-74
2021/01/31 01:26:02;;;;;;;11.93;10.87;;;2.30;99.90;;;2.89;94.61;96189.97;5259207;28;20216;-73
2021/01/31 01:28:35;;;;;;;12.30;11.20;;;2.30;99.90;;;2.83;95.28;96184.56;5252560;28;20291;-76
2021/01/31 01:31:08;;;;;;;12.40;11.30;;;2.30;99.90;;;3.09;94.41;96193.66;5248158;28;20210;-73
2021/01/31 01:33:40;;;;;;;12.63;11.40;;;2.50;99.90;;;3.06;93.96;96189.31;5257983;28;20247;-76
2021/01/31 01:36:12;;;;;;;12.77;11.57;;;2.50;99.90;;;2.81;93.72;96186.13;5245650;28;20335;-75
2021/01/31 01:38:44;;;;;;;12.13;11.03;;;2.30;99.90;;;2.96;94.21;96181.97;5245398;28;20216;-76
2021/01/31 01:41:16;;;;;;;11.87;10.77;;;2.30;99.90;;;2.87;93.80;96183.97;5246254;28;20207;-75
2021/01/31 01:43:51;;;;;;;12.10;11.00;;;2.30;99.90;;;2.84;94.04;96177.09;5248222;28;20305;-76
2021/01/31 01:46:37;;;;;;;12.77;11.57;;;2.30;99.90;;;2.67;93.37;96183.66;5264669;28;20702;-76
2021/01/31 01:49:18;;;;;;;13.47;12.30;;;2.30;99.90;;;2.75;94.78;96190.78;5255963;28;20750;-76
2021/01/31 01:51:57;;;;;;;13.37;12.10;;;2.20;99.90;;;2.81;94.18;96187.00;5267116;28;20199;-75
2021/01/31 01:54:33;;;;;;;12.87;11.63;;;2.20;99.90;;;2.93;94.38;96194.41;5250918;28;20222;-75
2021/01/31 01:57:10;;;;;;;13.97;12.67;;;2.20;99.90;;;2.87;94.19;96191.53;5250068;28;20223;-76
2021/01/31 01:59:44;;;;;;;13.83;12.53;;;2.20;99.90;;;2.83;94.82;96197.16;5261546;28;20656;-75
2021/01/31 02:02:21;;;;;;;13.17;11.87;;;2.30;99.90;;;2.83;94.70;96197.16;5249668;28;20202;-75
2021/01/31 02:04:53;;;;;;;14.17;12.90;;;2.20;99.90;;;2.73;94.43;96197.41;5246199;28;20203;-76
2021/01/31 02:07:25;;;;;;;13.53;12.33;;;2.20;99.90;;;2.70;94.82;96204.00;5245156;28;20227;-74
2021/01/31 02:09:58;;;;;;;14.77;13.47;;;2.20;99.90;;;2.66;94.07;96201.19;5248652;28;20206;-74
2021/01/31 02:12:30;;;;;;;13.60;12.40;;;2.10;99.90;;;2.82;94.00;96196.31;5265028;28;20242;-75
2021/01/31 02:15:06;;;;;;;13.53;12.23;;;2.20;99.90;;;2.60;93.64;96199.19;5258491;28;20667;-76
2021/01/31 02:17:55;;;;;;;13.67;12.40;;;2.10;99.90;;;2.84;94.92;96196.41;5245544;28;20207;-75
2021/01/31 02:21:06;;;;;;;13.17;11.93;;;2.20;99.90;;;2.74;93.30;96200.00;5257361;28;20319;-75
2021/01/31 02:24:29;;;;;;;12.60;11.50;;;2.20;99.90;;;2.78;93.47;96209.53;5239455;28;20225;-76
2021/01/31 02:27:36;;;;;;;13.67;12.30;;;2.10;99.90;;;2.77;94.22;96205.25;5244838;28;20227;-75
2021/01/31 02:30:50;;;;;;;14.23;12.93;;;2.10;99.90;;;2.76;94.97;96212.72;5266401;28;20286;-76
2021/01/31 02:33:41;;;;;;;13.50;12.20;;;2.10;99.90;;;2.67;95.20;96213.91;5245332;28;20219;-75
2021/01/31 02:36:26;;;;;;;14.47;13.10;;;2.10;99.90;;;2.80;94.37;96227.25;5246389;28;20728;-75
2021/01/31 02:39:13;;;;;;;14.67;13.27;;;2.20;99.90;;;2.85;94.87;96219.19;5265833;28;20206;-76
2021/01/31 02:41:55;;;;;;;14.27;12.97;;;2.30;99.90;;;2.75;94.89;96228.63;5265235;28;20698;-75
2021/01/31 02:44:29;;;;;;;14.70;13.23;;;2.20;99.90;;;2.81;95.88;96224.84;5265629;28;20642;-76
2021/01/31 02:47:04;;;;;;;14.07;12.60;;;2.20;99.90;;;2.64;94.71;96236.44;5260971;28;20589;-76
2021/01/31 02:49:42;;;;;;;14.00;12.60;;;2.20;99.90;;;2.64;95.14;96233.06;5266209;28;20199;-76
2021/01/31 02:52:21;;;;;;;14.90;13.50;;;2.10;99.90;;;2.59;94.44;96232.75;5252201;28;20279;-73
2021/01/31 02:55:00;;;;;;;13.90;12.60;;;2.00;99.90;;;2.65;93.83;96235.66;5247894;28;20206;-75
2021/01/31 02:57:39;;;;;;;14.63;13.23;;;2.20;99.90;;;2.57;93.57;96246.91;5239591;28;20686;-75
2021/01/31 03:00:18;;;;;;;15.03;13.53;;;2.00;99.90;;;2.57;95.58;96243.53;5247503;28;20273;-74
2021/01/31 03:02:57;;;;;;;15.03;13.43;;;2.00;99.90;;;2.54;95.07;96245.88;5263356;28;20222;-74
2021/01/31 03:05:34;;;;;;;15.00;13.47;;;2.00;99.90;;;2.77;95.92;96235.50;5256156;28;20221;-73
2021/01/31 03:08:12;;;;;;;14.93;13.43;;;2.10;99.90;;;2.71;93.93;96238.53;5250674;28;20198;-75
2021/01/31 03:10:47;;;;;;;16.27;14.73;;;2.10;99.90;;;2.49;93.39;96230.47;5266383;28;20286;-75
2021/01/31 03:13:28;;;;;;;14.93;13.47;;;2.00;99.90;;;2.47;93.73;96229.50;5262530;28;20311;-73
2021/01/31 03:16:08;;;;;;;14.97;13.47;;;1.90;99.90;;;2.34;94.01;96232.03;5264704;28;20199;-75
2021/01/31 03:18:46;;;;;;;14.87;13.37;;;1.90;99.90;;;2.37;94.89;96227.19;5265285;28;20210;-75
2021/01/31 03:21:25;;;;;;;15.73;14.20;;;1.80;99.90;;;2.15;93.93;96235.94;5269813;28;20221;-72
2021/01/31 03:24:10;;;;;;;15.47;13.97;;;1.70;99.90;;;2.08;94.47;96243.00;5269053;28;20241;-74
2021/01/31 03:26:49;;;;;;;17.13;15.33;;;1.70;99.90;;;1.98;95.12;96246.63;5254940;28;20219;-75
2021/01/31 03:29:21;;;;;;;17.03;15.23;;;1.60;99.90;;;2.02;95.59;96248.53;5265819;28;20210;-74
2021/01/31 03:31:57;;;;;;;16.20;14.50;;;1.70;99.90;;;2.15;97.46;96251.06;5258801;28;20208;-73
2021/01/31 03:34:37;;;;;;;16.00;14.50;;;1.80;99.90;;;2.21;97.75;96248.06;5262885;28;20227;-74
2021/01/31 03:37:12;;;;;;;17.50;14.97;;;1.80;99.90;;;2.29;97.32;96248.50;5268166;28;20196;-75
2021/01/31 03:39:46;;;;;;;17.73;15.13;;;1.80;99.90;;;2.26;97.83;96254.22;5262211;28;20205;-75
2021/01/31 03:42:19;;;;;;;16.60;14.77;;;1.80;99.90;;;2.22;97.43;96258.22;5249029;28;20577;-75
2021/01/31 03:44:54;;;;;;;17.53;15.73;;;1.70;99.90;;;2.34;97.67;96257.25;5269331;28;20568;-75
2021/01/31 03:47:34;;;;;;;17.07;15.37;;;1.80;99.90;;;2.26;97.96;96254.22;5265976;28;20211;-73
2021/01/31 03:50:07;;;;;;;17.53;15.00;;;1.80;99.90;;;2.18;97.82;96258.81;5269428;28;20710;-75
2021/01/31 03:52:41;;;;;;;17.90;16.00;;;1.70;99.90;;;2.23;98.58;96265.03;5269315;28;20224;-75
2021/01/31 03:55:13;;;;;;;16.83;15.23;;;1.80;99.90;;;2.28;98.36;96267.81;5266361;28;20218;-75
2021/01/31 03:57:50;;;;;;;17.13;15.27;;;1.80;99.90;;;2.35;98.44;96274.13;5253913;28;20210;-75
2021/01/31 04:00:26;;;;;;;16.63;14.93;;;1.90;99.90;;;2.34;99.18;96275.75;5265062;28;20643;-75
2021/01/31 04:03:07;;;;;;;16.47;14.70;;;1.90;99.90;;;2.46;98.95;96278.16;5266556;28;20261;-76
2021/01/31 04:05:45;;;;;;;16.50;14.73;;;2.00;99.90;;;2.54;99.31;96276.13;5268284;28;20306;-76
2021/01/31 04:08:19;;;;;;;15.97;14.37;;;2.10;99.90;;;2.53;99.25;96270.22;5267641;28;20191;-73
2021/01/31 04:10:52;;;;;;;17.47;15.67;;;2.00;99.90;;;2.63;100.00;96275.06;5269404;28;20207;-74
2021/01/31 04:13:24;;;;;;;15.90;14.30;;;2.00;99.90;;;2.58;99.57;96278.94;5267766;28;20273;-75
2021/01/31 04:16:00;;;;;;;16.23;14.67;;;2.00;99.90;;;2.60;99.09;96279.88;5249175;28;20287;-75
2021/01/31 04:18:32;;;;;;;14.80;13.43;;;1.90;99.90;;;2.42;97.41;96281.28;5247621;28;20727;-74
2021/01/31 04:21:04;;;;;;;17.10;15.33;;;1.80;99.90;;;2.42;97.28;96281.28;5248359;28;20211;-75
2021/01/31 04:23:37;;;;;;;16.93;15.20;;;1.80;99.90;;;2.51;97.64;96286.03;5259481;28;20590;-75
2021/01/31 04:26:10;;;;;;;16.77;15.00;;;1.90;99.90;;;2.47;97.15;96290.00;5249428;28;20217;-75
2021/01/31 04:28:42;;;;;;;17.03;14.93;;;1.80;99.90;;;2.41;97.36;96298.06;5247701;28;20211;-74
2021/01/31 04:31:14;;;;;;;16.13;14.53;;;1.80;99.90;;;2.42;97.08;96288.84;5261960;28;20291;-75
2021/01/31 04:33:47;;;;;;;16.60;14.90;;;1.80;99.90;;;2.53;96.30;96290.38;5268796;28;20313;-75
2021/01/31 04:36:19;;;;;;;16.27;14.57;;;1.80;99.90;;;2.47;97.06;96284.97;5256643;28;20204;-75
2021/01/31 04:38:52;;;;;;;16.47;14.77;;;1.90;99.90;;;2.59;97.08;96288.22;5248137;28;20207;-75
2021/01/31 04:41:32;;;;;;;17.43;15.73;;;2.00;99.90;;;2.58;97.73;96283.97;5246474;28;20249;-75
2021/01/31 04:44:05;;;;;;;17.40;15.60;;;2.00;99.90;;;2.59;98.51;96295.81;5246341;28;20261;-73
2021/01/31 04:46:46;;;;;;;17.40;15.57;;;2.00;99.90;;;2.79;96.91;96296.16;5253625;28;20215;-75
2021/01/31 04:49:41;;;;;;;15.80;14.20;;;2.10;99.90;;;2.63;97.04;96290.19;5247523;28;20586;-75
2021/01/31 04:52:30;;;;;;;17.50;15.70;;;2.00;99.90;;;2.81;97.38;96292.97;5249453;28;20295;-75
2021/01/31 04:55:53;;;;;;;17.33;14.80;;;2.10;99.90;;;2.72;96.73;96287.34;5257514;28;20691;-75
2021/01/31 04:58:31;;;;;;;16.07;14.47;;;2.10;99.90;;;2.65;97.02;96282.69;5210721;28;20209;-73
2021/01/31 05:01:07;;;;;;;16.30;14.70;;;2.10;99.90;;;2.62;97.23;96278.34;5253075;28;20207;-75
2021/01/31 05:03:55;;;;;;;16.90;15.20;;;2.00;99.90;;;2.57;96.37;96281.34;5259348;28;20219;-75
2021/01/31 05:06:33;;;;;;;16.47;14.77;;;2.00;99.90;;;2.56;96.79;96290.56;5247661;28;20216;-73
2021/01/31 05:09:06;;;;;;;15.80;14.20;;;2.00;99.90;;;2.58;96.60;96288.16;5267639;28;20345;-73
2021/01/31 05:11:49;;;;;;;16.53;14.57;;;2.00;99.90;;;2.54;97.04;96282.03;5265275;28;20199;-74
2021/01/31 05:14:37;;;;;;;15.00;13.50;;;1.90;99.90;;;2.41;95.45;96284.59;5247352;28;20335;-75
2021/01/31 05:17:09;;;;;;;16.27;14.53;;;1.80;99.90;;;2.47;96.46;96290.88;5256549;28;20192;-72
2021/01/31 05:19:42;;;;;;;15.80;14.30;;;1.90;99.90;;;2.47;96.68;96280.78;5267649;28;20204;-75
2021/01/31 05:22:17;;;;;;;16.70;15.00;;;1.90;99.90;;;2.86;96.91;96278.06;5261070;28;20300;-75
2021/01/31 05:24:49;;;;;;;16.63;14.40;;;2.10;99.90;;;2.62;95.83;96278.34;5247543;28;20200;-75
2021/01/31 05:27:29;;;;;;;16.40;14.70;;;2.00;99.90;;;2.55;96.42;96268.66;5251604;28;20227;-75
2021/01/31 05:30:01;;;;;;;16.60;14.90;;;2.00;99.90;;;2.53;96.45;96270.22;5264500;28;20196;-73
2021/01/31 05:33:06;;;;;;;16.77;15.07;;;2.00;99.90;;;2.60;96.95;96276.50;5246390;28;20311;-72
2021/01/31 05:35:42;;;;;;;15.73;14.17;;;2.00;99.90;;;2.55;96.54;96275.34;5256082;28;20200;-75
2021/01/31 05:38:33;;;;;;;15.57;14.07;;;2.00;99.90;;;2.57;96.38;96276.31;5263988;28;20238;-75
2021/01/31 05:41:36;;;;;;;16.03;14.33;;;1.90;99.90;;;2.50;96.28;96275.06;5259493;28;20193;-73
2021/01/31 05:44:23;;;;;;;16.40;14.70;;;2.00;99.90;;;2.44;97.24;96289.81;5262156;28;20664;-75
2021/01/31 05:46:58;;;;;;;16.60;14.90;;;2.00;99.90;;;2.46;97.11;96290.75;5264942;28;20238;-75
2021/01/31 05:49:41;;;;;;;16.63;14.93;;;1.90;99.90;;;2.55;97.33;96296.41;5266450;28;20554;-74
2021/01/31 05:52:32;;;;;;;16.33;14.67;;;2.00;99.90;;;2.58;98.41;96294.06;5265821;28;20293;-74
2021/01/31 05:55:24;;;;;;;16.40;14.70;;;2.10;99.90;;;2.58;97.84;96299.13;5248584;28;20397;-75
2021/01/31 05:58:15;;;;;;;16.80;15.00;;;2.00;99.90;;;2.55;98.00;96303.06;5257710;28;20641;-76
2021/01/31 06:01:04;;;;;;;16.60;14.77;;;2.00;99.90;;;2.58;98.38;96303.28;5262601;28;20290;-74
2021/01/31 06:03:37;;;;;;;18.37;16.50;;;2.00;99.90;;;2.67;98.29;96308.91;5253496;28;20307;-75
2021/01/31 06:06:14;;;;;;;17.87;16.07;;;2.10;99.90;;;2.66;97.99;96313.06;5244116;28;20229;-74
2021/01/31 06:08:49;;;;;;;17.67;15.87;;;2.10;99.90;;;2.64;97.92;96309.56;5254678;28;20196;-74
2021/01/31 06:11:26;;;;;;;17.33;15.53;;;2.10;99.90;;;2.60;98.47;96311.81;5249778;28;20279;-76
2021/01/31 06:14:04;;;;;;;15.93;14.33;;;2.00;99.90;;;2.66;98.11;96320.63;5252704;28;20248;-74
2021/01/31 06:16:38;;;;;;;16.87;15.13;;;2.00;99.90;;;2.70;97.81;96327.59;5252805;28;20195;-75
2021/01/31 06:19:23;;;;;;;17.30;15.60;;;2.00;99.90;;;2.69;98.23;96328.41;5244664;28;20287;-75
2021/01/31 06:21:55;;;;;;;15.57;13.90;;;2.10;99.90;;;2.72;97.83;96322.66;5253219;28;20551;-75
2021/01/31 06:24:42;;;;;;;17.27;15.47;;;2.10;99.90;;;2.70;98.05;96331.78;5252436;28;20225;-72
2021/01/31 06:27:29;;;;;;;16.40;14.67;;;2.00;99.90;;;2.88;97.15;96337.94;5246046;28;20220;-73
2021/01/31 06:30:21;;;;;;;15.83;14.33;;;2.20;99.90;;;2.80;97.09;96335.72;5256140;28;20196;-75
2021/01/31 06:32:54;;;;;;;16.80;15.10;;;2.10;99.90;;;2.72;96.69;96337.81;5250141;28;20750;-73
2021/01/31 06:35:26;;;;;;;15.83;14.30;;;2.10;99.90;;;2.71;96.66;96333.50;5257929;22;20228;-75
2021/01/31 06:38:18;;;;;;;16.07;14.37;;;2.10;99.90;;;2.55;94.70;96334.22;5241769;28;20664;-76
2021/01/31 06:41:15;;;;;;;14.47;13.07;;;1.90;99.90;;;2.62;95.17;96336.34;5241231;28;20280;-75
2021/01/31 06:44:01;;;;;;;15.73;14.17;;;1.90;99.90;;;2.60;96.24;96332.84;5242856;28;20215;-75
2021/01/31 06:46:43;;;;;;;15.80;14.20;;;2.00;99.90;;;2.68;96.08;96336.72;5223276;28;20683;-75
2021/01/31 06:49:36;;;;;;;16.77;15.07;;;2.00;99.90;;;2.68;96.04;96336.72;5224646;28;20203;-75
2021/01/31 06:52:22;;;;;;;15.67;13.97;;;2.10;99.90;;;2.70;96.38;96352.81;5216960;28;20210;-75
2021/01/31 06:55:08;;;;;;;16.67;14.67;;;2.10;99.90;;;2.68;96.47;96354.38;5218036;28;20229;-76
2021/01/31 06:58:06;;;;;;;16.87;15.10;;;2.10;99.90;;;2.71;97.53;96363.78;5225453;28;20189;-75
2021/01/31 07:01:02;;;;;;;15.60;14.10;;;2.10;99.90;;;2.65;95.71;96371.84;5210685;28;20206;-75
2021/01/31 07:04:08;;;;;;;15.43;13.93;;;2.10;99.90;;;2.69;97.03;96376.31;5224135;28;20668;-75
2021/01/31 07:07:27;;;;;;;16.03;14.43;;;2.10;99.90;;;2.68;97.48;96388.81;5224343;28;20217;-76
2021/01/31 07:10:13;;;;;;;15.83;14.23;;;2.10;99.90;;;2.74;97.34;96384.16;5221451;28;20209;-75
2021/01/31 07:13:04;;;;;;;16.63;14.93;;;2.20;99.90;;;2.80;98.02;96396.28;5212181;28;20292;-75
2021/01/31 07:15:42;;;;;;;15.77;14.27;;;2.20;99.90;;;2.87;97.75;96393.38;5223667;28;20225;-76
2021/01/31 07:18:17;;;;;;;15.57;14.07;;;2.30;99.90;;;2.86;97.85;96387.47;5222645;28;20206;-75
2021/01/31 07:20:53;;;;;;;15.50;14.07;;;2.20;99.90;;;2.87;97.54;96393.38;5227744;28;20212;-76
2021/01/31 07:23:29;;;;;;;15.33;13.90;;;2.20;99.90;;;2.86;96.77;96386.56;5227351;28;20192;-75
2021/01/31 07:26:21;;;;;;;15.93;14.50;;;2.20;99.90;;;2.87;97.14;96396.78;5223857;28;20783;-75
2021/01/31 07:28:57;;;;;;;14.43;13.13;;;2.20;99.90;;;2.89;96.11;96389.28;5221752;28;20194;-76
2021/01/31 07:31:45;;;;;;;15.27;13.77;;;2.10;99.90;;;2.69;94.76;96391.44;5225370;28;20193;-76
2021/01/31 07:34:25;;;;;;;16.37;14.77;;;2.10;99.90;;;2.79;96.45;96400.47;5227011;28;20224;-76
2021/01/31 07:37:11;;;;;;;16.07;13.30;;;2.20;99.90;;;2.97;95.86;96403.25;5227054;28;20669;-76
2021/01/31 07:40:03;;;;;;;15.10;13.63;;;2.20;99.90;;;2.89;95.45;96406.94;5220088;28;20216;-75
2021/01/31 07:42:38;;;;;;;16.80;15.30;;;2.20;99.90;;;2.87;95.87;96408.50;5214993;28;20215;-75
2021/01/31 07:45:14;;;;;;;16.17;14.57;;;2.30;99.90;;;2.87;95.70;96409.38;5225567;28;20225;-75
2021/01/31 07:47:48;;;;;;;14.93;13.47;;;2.20;99.90;;;2.94;96.16;96405.59;5217925;28;20224;-75
2021/01/31 07:50:39;;;;;;;14.73;13.33;;;2.30;99.90;;;3.03;94.79;96405.28;5225381;28;20197;-76
2021/01/31 07:53:12;;;;;;;20.23;18.33;;;2.30;99.90;;;3.06;96.07;96405.47;5211770;28;20286;-76
2021/01/31 07:55:45;;;;;;;16.47;14.97;;;2.40;99.90;;;2.99;95.21;96401.69;5225523;28;20213;-76
2021/01/31 07:58:38;;;;;;;12.97;11.87;;;2.30;99.90;;;3.11;94.79;96404.97;5224776;28;20201;-75
2021/01/31 08:01:42;;;;;;;13.53;12.43;;;2.40;99.90;;;3.02;92.98;96409.47;5223676;28;20229;-76
2021/01/31 08:04:25;;;;;;;12.53;11.43;;;2.30;99.90;;;3.05;93.92;96406.25;5218233;28;20197;-75
2021/01/31 08:07:00;;;;;;;14.83;13.53;;;2.30;99.90;;;3.00;93.17;96405.97;5225414;28;20303;-76
2021/01/31 08:09:52;;;;;;;13.63;12.43;;;2.40;99.90;;;3.17;94.32;96405.34;5211269;28;20192;-76
2021/01/31 08:12:58;;;;;;;13.53;12.33;;;2.40;99.90;;;3.02;92.17;96406.06;5224900;28;20212;-76
2021/01/31 08:15:39;;;;;;;13.87;12.67;;;2.40;99.90;;;2.96;92.23;96419.19;5212867;28;20254;-76
2021/01/31 08:18:21;;;;;;;14.10;12.90;;;2.30;99.90;;;2.99;93.03;96423.53;5224722;28;20200;-75
2021/01/31 08:20:54;;;;;;;14.67;13.40;;;2.40;99.90;;;3.05;94.38;96429.84;5226151;28;20281;-76
2021/01/31 08:23:47;;;;;;;15.63;14.07;;;2.50;99.90;;;3.14;94.82;96430.41;5210130;28;20205;-76
2021/01/31 08:26:52;;;;;;;14.40;13.10;;;2.50;99.90;;;3.11;92.51;96430.22;5218774;28;20226;-75
2021/01/31 08:29:32;;;;;;;14.13;12.90;;;2.50;99.90;;;3.29;92.72;96416.97;5221805;28;20193;-76
2021/01/31 08:32:12;;;;;;;13.93;12.63;;;2.50;99.90;;;3.21;93.39;96420.72;5224551;28;20201;-76
2021/01/31 08:35:19;;;;;;;15.00;13.50;;;2.50;99.90;;;3.20;92.80;96424.84;5215592;28;20242;-76
2021/01/31 08:37:52;;;;;;;15.90;14.40;;;2.50;99.90;;;3.11;92.12;96440.31;5208528;28;20676;-75
2021/01/31 08:40:26;;;;;;;15.43;13.97;;;2.50;99.90;;;3.24;93.60;96433.53;5217342;28;20940;-76
2021/01/31 08:42:58;;;;;;;16.40;14.70;;;2.60;99.90;;;3.45;94.98;96437.34;5226115;28;20204;-77
2021/01/31 08:45:44;;;;;;;15.30;13.90;;;2.80;99.90;;;3.26;91.69;96434.47;5225949;28;20225;-76
2021/01/31 08:48:35;;;;;;;15.53;14.13;;;2.60;99.90;;;3.27;93.59;96436.22;5221428;28;20225;-76
2021/01/31 08:51:18;;;;;;;15.13;13.80;;;2.60;99.90;;;3.29;94.23;96443.13;5222036;28;20212;-76
2021/01/31 08:54:05;;;;;;;16.27;14.77;;;2.60;99.90;;;3.24;94.17;96446.16;5205518;28;20604;-75
2021/01/31 08:56:40;;;;;;;15.97;14.47;;;2.70;99.90;;;3.28;93.78;96446.41;5223639;28;20208;-75
2021/01/31 08:59:16;;;;;;;16.40;14.90;;;2.70;99.90;;;3.26;92.87;96444.56;5224505;28;20271;-75
2021/01/31 09:01:53;;;;;;;15.97;14.47;;;2.60;99.90;;;3.25;93.70;96446.22;5223570;28;20189;-76
2021/01/31 09:04:27;;;;;;;16.80;15.20;;;2.60;99.90;;;3.33;94.25;96441.66;5238761;28;20219;-76
2021/01/31 09:07:02;;;;;;;17.20;15.57;;;2.70;99.90;;;3.35;94.67;96435.06;5225564;28;20223;-75
2021/01/31 09:09:38;;;;;;;18.13;16.43;;;2.70;99.90;;;3.45;93.93;96432.28;5229778;28;20312;-75
2021/01/31 09:12:13;;;;;;;15.97;14.47;;;2.70;99.90;;;3.48;93.05;96436.66;5224995;28;20614;-75
2021/01/31 09:14:45;;;;;;;16.47;14.97;;;2.80;99.90;;;3.28;90.48;96445.53;5223290;28;20592;-75
2021/01/31 09:17:25;;;;;;;17.07;15.47;;;2.70;99.90;;;3.35;92.46;96443.50;5226002;28;20212;-75
2021/01/31 09:20:15;;;;;;;17.57;15.93;;;2.70;99.90;;;3.31;92.57;96444.06;5218957;28;20298;-75
2021/01/31 09:22:50;;;;;;;17.17;15.57;;;2.70;99.90;;;3.27;92.63;96451.38;5237470;28;20263;-75
2021/01/31 09:25:25;;;;;;;17.33;15.73;;;2.70;99.90;;;3.37;93.57;96446.09;5228912;28;20221;-75
2021/01/31 09:28:02;;;;;;;17.83;16.20;;;2.70;99.90;;;3.37;94.23;96453.69;5224395;28;20228;-77
2021/01/31 09:30:36;;;;;;;15.10;13.70;;;2.70;99.90;;;3.33;93.42;96449.22;5222083;28;20205;-75
2021/01/31 09:33:13;;;;;;;16.30;14.80;;;2.70;99.90;;;3.36;92.58;96462.91;5224261;28;20205;-75
2021/01/31 09:35:46;;;;;;;16.00;14.50;;;2.70;99.90;;;3.39;93.47;96469.81;5228444;28;20614;-76
2021/01/31 09:38:24;;;;;;;17.10;15.33;;;2.80;99.90;;;3.52;94.08;96479.88;5224806;28;20198;-76
2021/01/31 09:40:58;;;;;;;17.40;15.80;;;2.80;99.90;;;3.38;91.81;96475.66;5217368;28;20203;-76
2021/01/31 09:43:32;;;;;;;16.40;14.90;;;2.70;99.90;;;3.46;93.08;96474.44;5222668;28;20208;-76
2021/01/31 09:46:12;;;;;;;18.03;16.23;;;2.80;99.90;;;3.24;90.42;96476.44;5222630;28;20224;-76
2021/01/31 09:48:45;;;;;;;17.63;15.90;;;2.70;99.90;;;3.24;90.52;96472.25;5223446;28;20195;-76
2021/01/31 09:51:24;;;;;;;18.80;17.00;;;2.60;99.90;;;3.17;90.47;96481.06;5228328;28;20271;-76
2021/01/31 09:54:14;;;;;;;17.73;16.00;;;2.60;99.90;;;3.25;91.54;96468.06;5238888;28;20288;-76
2021/01/31 09:56:49;;;;;;;18.53;16.63;;;2.60;99.90;;;3.24;91.67;96468.88;5222689;28;20204;-76
2021/01/31 09:59:25;;;;;;;17.70;15.80;;;2.60;99.90;;;3.38;92.40;96481.56;5223490;28;20204;-75
2021/01/31 10:02:08;;;;;;;17.57;15.77;;;2.70;99.90;;;3.30;91.52;96479.34;5224477;28;20204;-76
2021/01/31 10:04:43;;;;;;;17.87;15.93;;;2.70;99.90;;;3.36;92.38;96477.19;5223936;28;20326;-76
2021/01/31 10:07:30;;;;;;;18.23;16.40;;;2.70;99.90;;;3.24;89.70;96486.53;5233530;28;20599;-75
2021/01/31 10:10:20;;;;;;;17.70;15.90;;;2.70;99.90;;;3.32;91.47;96490.38;5230324;28;20204;-76
2021/01/31 10:13:14;;;;;;;18.03;16.10;;;2.70;99.90;;;3.36;90.90;96487.28;5223143;28;20234;-76
2021/01/31 10:15:54;;;;;;;18.23;16.30;;;2.70;99.90;;;3.56;93.28;96486.00;5220633;28;20258;-76
2021/01/31 10:18:34;;;;;;;18.90;16.23;;;2.80;99.90;;;3.50;91.89;96481.44;5214686;28;20198;-76
2021/01/31 10:21:17;;;;;;;18.47;16.67;;;2.80;99.90;;;3.44;91.59;96473.50;5243382;28;21005;-76
2021/01/31 10:23:51;;;;;;;17.70;15.83;;;2.80;99.90;;;3.55;93.18;96479.22;5238734;28;20555;-76
2021/01/31 10:26:23;;;;;;;17.33;15.63;;;2.80;99.90;;;3.67;93.77;96489.19;5216596;28;20220;-76
2021/01/31 10:28:58;;;;;;;16.70;15.17;;;2.90;99.90;;;3.67;92.51;96474.03;5217283;28;20578;-76
2021/01/31 10:31:33;;;;;;;17.10;15.40;;;2.90;99.90;;;3.67;92.94;96479.06;5217887;28;20199;-76
2021/01/31 10:34:09;;;;;;;17.23;15.43;;;3.00;99.90;;;3.79;93.66;96467.19;5218940;28;20208;-76
2021/01/31 10:36:45;;;;;;;17.37;15.77;;;3.00;99.90;;;3.81;91.70;96453.00;5224323;28;20238;-76
2021/01/31 10:39:26;;;;;;;16.27;14.63;;;3.00;99.90;;;3.60;89.02;96453.41;5223861;28;20313;-76
2021/01/31 10:41:59;;;;;;;15.93;14.33;;;2.90;99.90;;;3.61;89.03;96447.59;5216576;28;20196;-76
2021/01/31 10:44:32;;;;;;;16.27;14.63;;;2.90;99.90;;;3.54;88.68;96453.06;5218367;28;20222;-76
2021/01/31 10:47:04;;;;;;;17.07;15.30;;;2.90;99.90;;;3.54;88.50;96448.00;5223262;28;20220;-79
2021/01/31 10:49:36;;;;;;;15.53;13.93;;;2.90;99.90;;;3.37;87.47;96446.09;5233126;28;20691;-76
2021/01/31 10:52:10;;;;;;;16.17;14.60;;;2.80;99.90;;;3.55;89.25;96433.75;5232956;28;20572;-76
2021/01/31 10:54:42;;;;;;;16.77;15.03;;;2.80;99.90;;;3.64;90.27;96434.28;5219446;28;20243;-76
2021/01/31 10:57:14;;;;;;;16.20;14.60;;;2.90;99.90;;;3.66;88.80;96421.72;5224388;28;20197;-77
2021/01/31 10:59:46;;;;;;;16.57;14.93;;;3.00;99.90;;;3.71;88.88;96430.47;5224189;28;20657;-76
2021/01/31 11:02:18;;;;;;;16.77;15.00;;;3.00;99.90;;;3.63;88.67;96426.59;5224511;28;20223;-77
2021/01/31 11:05:09;;;;;;;15.60;13.90;;;3.00;99.90;;;3.64;88.95;96434.28;5225877;28;20236;-77
2021/01/31 11:07:42;;;;;;;16.77;15.07;;;3.00;99.90;;;3.93;90.30;96430.97;5228564;28;20217;-76
2021/01/31 11:10:15;;;;;;;15.43;13.93;;;3.10;99.90;;;3.78;88.81;96433.47;5225846;28;20213;-77
2021/01/31 11:12:47;;;;;;;17.63;15.40;;;3.10;99.90;;;3.89;90.04;96441.66;5221966;28;20203;-75